Middlebury State AP, Middlebu, VT

6:46 PM EST on November 20, 2019 (GMT -0500)
Middlebury State AP, Middlebu

Weather History for K6B0 - August, 2019

Change the Weather History Date:

Tuesday, August 20, 2019

  Actual Average (KRUT) Record (KRUT)
Temperature  
Mean Temperature 68 °F -  
Max Temperature 80 °F 77 °F 89 °F (1983)
Min Temperature 57 °F 54 °F 41 °F (1953)
Cooling Degree Days 4    
Growing Degree Days 18 (Base 50)    
Moisture  
Dew Point 58 °F    
Average Humidity 70    
Maximum Humidity 99    
Minimum Humidity 39    
Precipitation  
Precipitation 0.00 in - - ()
Sea Level Pressure  
Sea Level Pressure 30.06 in    
Wind  
Wind Speed 2 mph ()    
Max Wind Speed 9 mph    
Max Gust Speed -    
Visibility 9.9 miles    
Events      
Averages and records for this station are not official NWS values.
T = Trace of Precipitation, MM = Missing Value Source: Averaged Metar Reports

Daily Weather History Graph

Daily Weather History Graph

Search for Another Location

Airport or City:

Astronomy

Aug. 20, 2019 Rise Set
Actual Time 6:01 AM EDT 7:49 PM EDT
Civil Twilight 5:30 AM EDT 8:19 PM EDT
Nautical Twilight 4:53 AM EDT 8:57 PM EDT
Astronomical Twilight 4:12 AM EDT 9:37 PM EDT
Moon 10:26 PM EDT 10:46 AM EDT
Length of Visible Light 14h 48m
Length of Day
13h 47m
Waning Gibbous, 78% of the Moon is Illuminated
Aug 20
Waning Gibbous
Aug 23
Last Quarter
Aug 30
New
Sep 5
First Quarter
Sep 14
Full

Hourly Weather History & Observations

Time (EDT) Temp. Heat Index Dew Point Humidity Pressure Visibility Wind Dir Wind Speed Gust Speed Precip Events Conditions
12:15 AM 64.0 °F - 59.9 °F 86% 30.02 in 10.0 mi Calm Calm - N/A   Clear
12:39 AM 63.5 °F - 59.7 °F 87% 30.02 in 10.0 mi Calm Calm - N/A   Clear
12:57 AM 63.0 °F - 59.5 °F 89% 30.02 in 10.0 mi Calm Calm - N/A   Clear
1:16 AM 62.2 °F - 59.4 °F 90% 30.03 in 10.0 mi Calm Calm - N/A   Clear
1:35 AM 61.7 °F - 58.6 °F 90% 30.03 in 10.0 mi Calm Calm - N/A   Clear
1:36 AM 61.7 °F - 58.8 °F 90% 30.03 in 10.0 mi Calm Calm - N/A   Clear
1:55 AM 60.8 °F - 58.6 °F 93% 30.03 in 10.0 mi Calm Calm - N/A   Clear
1:59 AM 60.8 °F - 59.0 °F 94% 30.03 in 10.0 mi South 3.5 mph - N/A   Clear
2:17 AM 59.7 °F - 58.3 °F 95% 30.03 in 10.0 mi Calm Calm - N/A   Clear
2:35 AM 59.4 °F - 58.1 °F 96% 30.04 in 10.0 mi Calm Calm - N/A   Clear
2:55 AM 60.1 °F - 58.6 °F 95% 30.04 in 10.0 mi Calm Calm - N/A   Clear
2:56 AM 60.1 °F - 58.6 °F 95% 30.04 in 10.0 mi Calm Calm - N/A   Clear
3:15 AM 60.1 °F - 58.5 °F 94% 30.05 in 10.0 mi Calm Calm - N/A   Clear
3:16 AM 60.1 °F - 58.5 °F 94% 30.05 in 10.0 mi Calm Calm - N/A   Clear
3:38 AM 58.3 °F - 57.4 °F 97% 30.05 in 10.0 mi Calm Calm - N/A   Clear
3:56 AM 59.0 °F - 58.1 °F 97% 30.05 in 10.0 mi Calm Calm - N/A   Clear
4:15 AM 58.5 °F - 57.6 °F 97% 30.06 in 10.0 mi Calm Calm - N/A   Clear
4:35 AM 58.3 °F - 57.4 °F 97% 30.06 in 10.0 mi Calm Calm - N/A   Clear
4:36 AM 58.1 °F - 57.2 °F 97% 30.06 in 10.0 mi Calm Calm - N/A   Clear
4:55 AM 58.3 °F - 56.8 °F 95% 30.07 in 10.0 mi Calm Calm - N/A   Clear
5:36 AM 58.3 °F - 57.2 °F 96% 30.07 in 10.0 mi Calm Calm - N/A   Clear
5:55 AM 57.6 °F - 56.8 °F 97% 30.08 in 7.0 mi Calm Calm - N/A   Clear
5:56 AM 57.7 °F - 57.0 °F 97% 30.08 in 7.0 mi Calm Calm - N/A   Clear
6:15 AM 57.2 °F - 56.5 °F 97% 30.09 in 10.0 mi Calm Calm - N/A   Clear
6:16 AM 57.2 °F - 56.5 °F 97% 30.09 in 10.0 mi Calm Calm - N/A   Clear
6:39 AM 57.2 °F - 56.5 °F 97% 30.09 in 4.0 mi Calm Calm - N/A   Clear
7:16 AM 57.0 °F - 56.7 °F 99% 30.10 in 10.0 mi Calm Calm - N/A   Clear
7:35 AM 59.2 °F - 58.1 °F 96% 30.10 in 10.0 mi Calm Calm - N/A   Clear
7:55 AM 60.8 °F - 58.1 °F 91% 30.11 in 10.0 mi Calm Calm - N/A   Clear
8:17 AM 62.6 °F - 59.4 °F 89% 30.12 in 10.0 mi Calm Calm - N/A   Clear
8:35 AM 64.8 °F - 60.6 °F 86% 30.12 in 10.0 mi Calm Calm - N/A   Clear
8:55 AM 67.3 °F - 60.6 °F 79% 30.11 in 10.0 mi Calm Calm - N/A   Clear
8:56 AM 67.5 °F - 60.4 °F 78% 30.11 in 10.0 mi Calm Calm - N/A   Clear
9:15 AM 68.9 °F - 59.7 °F 72% 30.12 in 10.0 mi South 3.5 mph - N/A   Clear
9:16 AM 68.9 °F - 59.9 °F 73% 30.12 in 10.0 mi SSE 3.5 mph - N/A   Clear
9:38 AM 70.2 °F - 60.3 °F 71% 30.11 in 10.0 mi SSE 3.5 mph - N/A   Clear
9:56 AM 71.2 °F - 60.3 °F 68% 30.11 in 10.0 mi SW 3.5 mph - N/A   Clear
10:16 AM 71.8 °F - 60.1 °F 67% 30.12 in 10.0 mi SW 4.6 mph - N/A   Clear
10:35 AM 72.1 °F - 59.9 °F 65% 30.12 in 10.0 mi South 4.6 mph - N/A   Clear
10:36 AM 72.1 °F - 60.1 °F 66% 30.12 in 10.0 mi South 4.6 mph - N/A   Clear
10:55 AM 73.4 °F - 59.5 °F 62% 30.11 in 10.0 mi WSW 4.6 mph - N/A   Clear
11:18 AM 73.9 °F - 59.0 °F 59% 30.11 in 10.0 mi WSW 3.5 mph - N/A   Clear
11:36 AM 74.8 °F - 59.0 °F 58% 30.11 in 10.0 mi Calm Calm - N/A   Clear
11:55 AM 75.7 °F - 59.2 °F 56% 30.10 in 10.0 mi West 4.6 mph - N/A   Clear
11:56 AM 75.6 °F - 59.5 °F 57% 30.10 in 10.0 mi West 3.5 mph - N/A   Clear
12:15 PM 75.9 °F - 59.2 °F 56% 30.09 in 10.0 mi SW 4.6 mph - N/A   Clear
12:16 PM 75.9 °F - 59.2 °F 56% 30.09 in 10.0 mi SW 3.5 mph - N/A   Clear
12:38 PM 77.0 °F - 58.8 °F 53% 30.09 in 10.0 mi South 6.9 mph - N/A   Clear
12:57 PM 77.5 °F - 59.0 °F 53% 30.08 in 10.0 mi WSW 4.6 mph - N/A   Clear
1:16 PM 78.1 °F - 56.5 °F 47% 30.08 in 10.0 mi WSW 3.5 mph - N/A   Clear
1:35 PM 78.1 °F - 55.8 °F 46% 30.07 in 10.0 mi South 3.5 mph - N/A   Clear
1:36 PM 78.3 °F - 55.6 °F 45% 30.07 in 10.0 mi SSW 3.5 mph - N/A   Clear
1:55 PM 79.2 °F - 56.5 °F 46% 30.08 in 10.0 mi WSW 4.6 mph - N/A   Clear
1:59 PM 79.3 °F - 55.2 °F 43% 30.08 in 10.0 mi SSW 5.8 mph - N/A   Clear
2:17 PM 78.8 °F - 54.7 °F 43% 30.08 in 10.0 mi SW 5.8 mph - N/A   Clear
2:35 PM 78.8 °F - 54.7 °F 43% 30.08 in 10.0 mi South 8.1 mph - N/A   Clear
2:55 PM 79.0 °F - 53.6 °F 41% 30.08 in 10.0 mi South 3.5 mph - N/A   Clear
2:56 PM 78.8 °F - 54.1 °F 42% 30.08 in 10.0 mi South 3.5 mph - N/A   Clear
3:15 PM 78.8 °F - 54.3 °F 43% 30.07 in 10.0 mi South 6.9 mph - N/A   Clear
3:39 PM 79.9 °F - 52.9 °F 39% 30.06 in 10.0 mi South 5.8 mph - N/A   Clear
3:57 PM 80.1 °F 80.4 °F 57.0 °F 45% 30.05 in 10.0 mi South 5.8 mph - N/A   Clear
4:16 PM 79.5 °F - 53.1 °F 40% 30.04 in 10.0 mi South 9.2 mph - N/A   Clear
4:35 PM 79.7 °F - 54.0 °F 41% 30.05 in 10.0 mi South 8.1 mph - N/A   Clear
4:36 PM 79.7 °F - 53.8 °F 41% 30.04 in 10.0 mi South 8.1 mph - N/A   Clear
4:55 PM 79.2 °F - 54.1 °F 42% 30.04 in 10.0 mi SSE 4.6 mph - N/A   Clear
4:59 PM 79.2 °F - 55.6 °F 44% 30.05 in 10.0 mi South 5.8 mph - N/A   Clear
5:17 PM 79.2 °F - 55.9 °F 45% 30.03 in 10.0 mi SSE 6.9 mph - N/A   Clear
5:35 PM 78.8 °F - 57.0 °F 47% 30.03 in 10.0 mi SSE 5.8 mph - N/A   Clear
5:55 PM 78.1 °F - 57.0 °F 48% 30.03 in 10.0 mi SE 4.6 mph - N/A   Clear
5:56 PM 78.1 °F - 57.4 °F 49% 30.02 in 10.0 mi SSE 4.6 mph - N/A   Clear
6:15 PM 77.5 °F - 59.2 °F 53% 30.01 in 10.0 mi SE 5.8 mph - N/A   Clear
6:39 PM 76.6 °F - 60.1 °F 56% 30.01 in 10.0 mi SSE 3.5 mph - N/A   Clear
6:56 PM 75.0 °F - 59.9 °F 59% 30.02 in 10.0 mi SE 4.6 mph - N/A   Clear
7:15 PM 73.6 °F - 59.5 °F 61% 30.02 in 10.0 mi SE 3.5 mph - N/A   Clear
7:35 PM 72.5 °F - 57.2 °F 59% 30.02 in 10.0 mi SE 3.5 mph - N/A   Clear
7:36 PM 72.5 °F - 57.4 °F 59% 30.02 in 10.0 mi SE 3.5 mph - N/A   Clear
7:55 PM 72.0 °F - 56.3 °F 58% 30.02 in 10.0 mi SSE 3.5 mph - N/A   Clear
7:59 PM 71.2 °F - 57.0 °F 61% 30.02 in 10.0 mi SSE 4.6 mph - N/A   Clear
8:17 PM 71.6 °F - 57.4 °F 61% 30.02 in 10.0 mi SSE 3.5 mph - N/A   Clear
8:35 PM 70.9 °F - 57.9 °F 63% 30.02 in 10.0 mi SSE 4.6 mph - N/A   Clear
8:55 PM 70.3 °F - 57.2 °F 63% 30.02 in 10.0 mi SE 4.6 mph - N/A   Clear
8:56 PM 70.7 °F - 57.0 °F 62% 30.02 in 10.0 mi SSE 4.6 mph - N/A   Clear
9:15 PM 70.2 °F - 56.8 °F 63% 30.03 in 10.0 mi SSE 5.8 mph - N/A   Clear
9:16 PM 70.5 °F - 56.3 °F 61% 30.03 in 10.0 mi SSE 5.8 mph - N/A   Clear
9:38 PM 70.0 °F - 57.0 °F 63% 30.03 in 10.0 mi SSE 3.5 mph - N/A   Clear
9:57 PM 68.7 °F - 57.9 °F 68% 30.03 in 10.0 mi SSE 3.5 mph - N/A   Clear
10:15 PM 66.0 °F - 59.2 °F 79% 30.02 in 10.0 mi Calm Calm - N/A   Clear
10:16 PM 66.0 °F - 59.2 °F 79% 30.03 in 10.0 mi Calm Calm - N/A   Clear
10:35 PM 65.5 °F - 58.6 °F 79% 30.03 in 10.0 mi Calm Calm - N/A   Clear
10:55 PM 64.4 °F - 59.0 °F 83% 30.02 in 10.0 mi Calm Calm - N/A   Clear
11:00 PM 64.9 °F - 59.0 °F 81% 30.02 in 10.0 mi Calm Calm - N/A   Clear
11:17 PM 64.2 °F - 59.2 °F 84% 30.02 in 10.0 mi Calm Calm - N/A   Clear
11:35 PM 64.6 °F - 59.0 °F 82% 30.02 in 10.0 mi Calm Calm - N/A   Clear
11:55 PM 63.3 °F - 58.3 °F 84% 30.02 in 10.0 mi Calm Calm - N/A   Clear
11:56 PM 63.3 °F - 58.3 °F 84% 30.02 in 10.0 mi Calm Calm - N/A   Clear